sensor_id;sensor_type;location;lat;lon;timestamp;pressure;altitude;pressure_sealevel;temperature;humidity
74722;BME280;63470;49.826;6.740;2022-11-23T00:01:47;98610.41;;;9.54;69.08
74722;BME280;63470;49.826;6.740;2022-11-23T00:04:17;98603.41;;;9.54;69.12
74722;BME280;63470;49.826;6.740;2022-11-23T00:06:47;98611.39;;;9.55;69.13
74722;BME280;63470;49.826;6.740;2022-11-23T00:09:20;98608.35;;;9.54;69.12
74722;BME280;63470;49.826;6.740;2022-11-23T00:11:51;98609.41;;;9.55;69.12
74722;BME280;63470;49.826;6.740;2022-11-23T00:14:21;98607.70;;;9.54;69.14
74722;BME280;63470;49.826;6.740;2022-11-23T00:16:54;98609.09;;;9.52;69.14
74722;BME280;63470;49.826;6.740;2022-11-23T00:19:24;98609.88;;;9.49;69.18
74722;BME280;63470;49.826;6.740;2022-11-23T00:21:52;98614.37;;;9.47;69.20
74722;BME280;63470;49.826;6.740;2022-11-23T00:24:25;98612.80;;;9.48;69.18
74722;BME280;63470;49.826;6.740;2022-11-23T00:26:55;98614.59;;;9.48;69.22
74722;BME280;63470;49.826;6.740;2022-11-23T00:29:21;98624.00;;;9.50;69.19
74722;BME280;63470;49.826;6.740;2022-11-23T00:31:51;98618.80;;;9.52;69.14
74722;BME280;63470;49.826;6.740;2022-11-23T00:34:23;98617.47;;;9.53;69.10
74722;BME280;63470;49.826;6.740;2022-11-23T00:36:52;98618.91;;;9.53;69.08
74722;BME280;63470;49.826;6.740;2022-11-23T00:39:22;98618.20;;;9.51;69.07
74722;BME280;63470;49.826;6.740;2022-11-23T00:41:52;98623.70;;;9.45;69.11
74722;BME280;63470;49.826;6.740;2022-11-23T00:44:23;98625.99;;;9.39;69.17
74722;BME280;63470;49.826;6.740;2022-11-23T00:46:53;98626.34;;;9.38;69.24
74722;BME280;63470;49.826;6.740;2022-11-23T00:49:26;98625.83;;;9.39;69.22
74722;BME280;63470;49.826;6.740;2022-11-23T00:51:59;98629.11;;;9.37;69.19
74722;BME280;63470;49.826;6.740;2022-11-23T00:54:26;98636.84;;;9.30;69.25
74722;BME280;63470;49.826;6.740;2022-11-23T00:56:55;98633.92;;;9.24;69.33
74722;BME280;63470;49.826;6.740;2022-11-23T00:59:26;98638.28;;;9.25;69.32
74722;BME280;63470;49.826;6.740;2022-11-23T01:01:56;98641.09;;;9.21;69.22
74722;BME280;63470;49.826;6.740;2022-11-23T01:04:28;98640.72;;;9.14;69.23
74722;BME280;63470;49.826;6.740;2022-11-23T01:06:58;98638.26;;;9.05;69.29
74722;BME280;63470;49.826;6.740;2022-11-23T01:09:28;98641.78;;;8.98;69.41
74722;BME280;63470;49.826;6.740;2022-11-23T01:11:58;98640.03;;;8.94;69.50
74722;BME280;63470;49.826;6.740;2022-11-23T01:14:35;98645.00;;;8.95;69.55
74722;BME280;63470;49.826;6.740;2022-11-23T01:17:02;98646.00;;;8.99;69.49
74722;BME280;63470;49.826;6.740;2022-11-23T01:19:32;98648.34;;;9.05;69.39
74722;BME280;63470;49.826;6.740;2022-11-23T01:22:01;98653.13;;;9.09;69.34
74722;BME280;63470;49.826;6.740;2022-11-23T01:24:31;98654.62;;;9.14;69.30
74722;BME280;63470;49.826;6.740;2022-11-23T01:27:02;98657.05;;;9.19;69.23
74722;BME280;63470;49.826;6.740;2022-11-23T01:29:32;98663.38;;;9.22;69.20
74722;BME280;63470;49.826;6.740;2022-11-23T01:32:03;98660.26;;;9.24;69.14
74722;BME280;63470;49.826;6.740;2022-11-23T01:34:33;98665.62;;;9.26;69.15
74722;BME280;63470;49.826;6.740;2022-11-23T01:37:03;98667.13;;;9.27;69.15
74722;BME280;63470;49.826;6.740;2022-11-23T01:39:34;98666.64;;;9.29;69.16
74722;BME280;63470;49.826;6.740;2022-11-23T01:42:10;98666.57;;;9.31;69.15
74722;BME280;63470;49.826;6.740;2022-11-23T01:44:40;98667.23;;;9.34;69.13
74722;BME280;63470;49.826;6.740;2022-11-23T01:47:07;98667.62;;;9.35;69.11
74722;BME280;63470;49.826;6.740;2022-11-23T01:49:39;98668.31;;;9.36;69.06
74722;BME280;63470;49.826;6.740;2022-11-23T01:52:22;98667.63;;;9.37;69.06
74722;BME280;63470;49.826;6.740;2022-11-23T01:54:42;98673.51;;;9.38;69.04
74722;BME280;63470;49.826;6.740;2022-11-23T01:57:12;98669.28;;;9.39;69.05
74722;BME280;63470;49.826;6.740;2022-11-23T01:59:38;98673.44;;;9.40;69.06
74722;BME280;63470;49.826;6.740;2022-11-23T02:02:09;98671.05;;;9.42;69.04
74722;BME280;63470;49.826;6.740;2022-11-23T02:04:42;98670.45;;;9.41;69.07
74722;BME280;63470;49.826;6.740;2022-11-23T02:07:15;98672.01;;;9.41;69.10
74722;BME280;63470;49.826;6.740;2022-11-23T02:09:45;98668.67;;;9.42;69.13
74722;BME280;63470;49.826;6.740;2022-11-23T02:12:16;98676.50;;;9.41;69.16
74722;BME280;63470;49.826;6.740;2022-11-23T02:14:44;98674.67;;;9.42;69.11
74722;BME280;63470;49.826;6.740;2022-11-23T02:17:11;98675.87;;;9.39;69.09
74722;BME280;63470;49.826;6.740;2022-11-23T02:20:06;98676.93;;;9.37;69.07
74722;BME280;63470;49.826;6.740;2022-11-23T02:24:48;98679.65;;;9.35;69.11
74722;BME280;63470;49.826;6.740;2022-11-23T02:27:13;98672.27;;;9.33;69.17
74722;BME280;63470;49.826;6.740;2022-11-23T02:29:44;98677.49;;;9.33;69.17
74722;BME280;63470;49.826;6.740;2022-11-23T02:32:19;98680.22;;;9.35;69.16
74722;BME280;63470;49.826;6.740;2022-11-23T02:34:44;98677.88;;;9.35;69.11
74722;BME280;63470;49.826;6.740;2022-11-23T02:37:15;98674.48;;;9.36;69.10
74722;BME280;63470;49.826;6.740;2022-11-23T02:39:47;98673.24;;;9.36;69.10
74722;BME280;63470;49.826;6.740;2022-11-23T02:42:20;98674.88;;;9.37;69.13
74722;BME280;63470;49.826;6.740;2022-11-23T02:47:16;98674.91;;;9.38;69.04
74722;BME280;63470;49.826;6.740;2022-11-23T02:49:48;98674.22;;;9.37;69.07
74722;BME280;63470;49.826;6.740;2022-11-23T02:52:18;98675.38;;;9.36;69.10
74722;BME280;63470;49.826;6.740;2022-11-23T02:54:47;98675.48;;;9.38;69.06
74722;BME280;63470;49.826;6.740;2022-11-23T02:57:18;98676.30;;;9.38;69.03
74722;BME280;63470;49.826;6.740;2022-11-23T02:59:48;98676.46;;;9.38;69.06
74722;BME280;63470;49.826;6.740;2022-11-23T03:02:19;98676.98;;;9.40;69.04
74722;BME280;63470;49.826;6.740;2022-11-23T03:04:49;98675.96;;;9.41;69.04
74722;BME280;63470;49.826;6.740;2022-11-23T03:07:27;98675.52;;;9.41;69.05
74722;BME280;63470;49.826;6.740;2022-11-23T03:09:50;98677.30;;;9.43;69.07
74722;BME280;63470;49.826;6.740;2022-11-23T03:12:21;98673.92;;;9.43;69.03
74722;BME280;63470;49.826;6.740;2022-11-23T03:14:51;98679.17;;;9.41;69.06
74722;BME280;63470;49.826;6.740;2022-11-23T03:17:21;98673.61;;;9.39;69.02
74722;BME280;63470;49.826;6.740;2022-11-23T03:19:52;98674.05;;;9.37;69.07
74722;BME280;63470;49.826;6.740;2022-11-23T03:22:23;98673.23;;;9.34;69.10
74722;BME280;63470;49.826;6.740;2022-11-23T03:24:53;98670.75;;;9.32;69.11
74722;BME280;63470;49.826;6.740;2022-11-23T03:27:23;98671.62;;;9.29;69.17
74722;BME280;63470;49.826;6.740;2022-11-23T03:29:53;98668.27;;;9.28;69.20
74722;BME280;63470;49.826;6.740;2022-11-23T03:32:30;98669.35;;;9.27;69.22
74722;BME280;63470;49.826;6.740;2022-11-23T03:35:01;98667.67;;;9.27;69.27
74722;BME280;63470;49.826;6.740;2022-11-23T03:37:30;98667.54;;;9.27;69.24
74722;BME280;63470;49.826;6.740;2022-11-23T03:39:55;98671.41;;;9.28;69.19
74722;BME280;63470;49.826;6.740;2022-11-23T03:42:25;98674.53;;;9.28;69.19
74722;BME280;63470;49.826;6.740;2022-11-23T03:44:56;98670.64;;;9.26;69.15
74722;BME280;63470;49.826;6.740;2022-11-23T03:47:26;98669.48;;;9.24;69.24
74722;BME280;63470;49.826;6.740;2022-11-23T03:49:57;98667.77;;;9.23;69.29
74722;BME280;63470;49.826;6.740;2022-11-23T03:52:27;98666.83;;;9.23;69.32
74722;BME280;63470;49.826;6.740;2022-11-23T03:55:00;98668.10;;;9.23;69.25
74722;BME280;63470;49.826;6.740;2022-11-23T03:57:28;98662.56;;;9.22;69.18
74722;BME280;63470;49.826;6.740;2022-11-23T03:59:59;98658.48;;;9.19;69.15
74722;BME280;63470;49.826;6.740;2022-11-23T04:02:36;98658.67;;;9.18;69.09
74722;BME280;63470;49.826;6.740;2022-11-23T04:05:06;98657.42;;;9.16;69.06
74722;BME280;63470;49.826;6.740;2022-11-23T04:07:30;98660.20;;;9.17;69.03
74722;BME280;63470;49.826;6.740;2022-11-23T04:10:01;98659.88;;;9.17;69.02
74722;BME280;63470;49.826;6.740;2022-11-23T04:12:31;98656.59;;;9.16;68.99
74722;BME280;63470;49.826;6.740;2022-11-23T04:15:02;98657.83;;;9.17;68.94
74722;BME280;63470;49.826;6.740;2022-11-23T04:17:32;98658.06;;;9.15;69.06
74722;BME280;63470;49.826;6.740;2022-11-23T04:20:03;98653.36;;;9.13;69.12
74722;BME280;63470;49.826;6.740;2022-11-23T04:22:33;98651.89;;;9.09;69.22
74722;BME280;63470;49.826;6.740;2022-11-23T04:25:04;98653.00;;;9.06;69.28
74722;BME280;63470;49.826;6.740;2022-11-23T04:27:38;98652.59;;;9.04;69.27
74722;BME280;63470;49.826;6.740;2022-11-23T04:30:09;98653.73;;;9.02;69.26
74722;BME280;63470;49.826;6.740;2022-11-23T04:32:34;98657.10;;;9.00;69.25
74722;BME280;63470;49.826;6.740;2022-11-23T04:35:05;98659.78;;;8.96;69.31
74722;BME280;63470;49.826;6.740;2022-11-23T04:37:35;98662.83;;;8.96;69.28
74722;BME280;63470;49.826;6.740;2022-11-23T04:40:06;98666.77;;;8.97;69.24
74722;BME280;63470;49.826;6.740;2022-11-23T04:42:36;98662.75;;;8.99;69.12
74722;BME280;63470;49.826;6.740;2022-11-23T04:45:07;98667.80;;;8.99;69.13
74722;BME280;63470;49.826;6.740;2022-11-23T04:47:36;98668.95;;;8.99;69.13
74722;BME280;63470;49.826;6.740;2022-11-23T04:50:07;98671.42;;;9.02;69.08
74722;BME280;63470;49.826;6.740;2022-11-23T04:52:38;98675.30;;;9.04;69.01
74722;BME280;63470;49.826;6.740;2022-11-23T04:55:16;98679.20;;;9.08;68.95
74722;BME280;63470;49.826;6.740;2022-11-23T04:57:38;98679.21;;;9.09;68.94
74722;BME280;63470;49.826;6.740;2022-11-23T05:00:09;98682.14;;;9.11;68.96
74722;BME280;63470;49.826;6.740;2022-11-23T05:02:39;98680.22;;;9.13;68.90
74722;BME280;63470;49.826;6.740;2022-11-23T05:05:09;98678.27;;;9.15;68.83
74722;BME280;63470;49.826;6.740;2022-11-23T05:07:40;98677.03;;;9.18;68.76
74722;BME280;63470;49.826;6.740;2022-11-23T05:10:11;98674.83;;;9.19;68.71
74722;BME280;63470;49.826;6.740;2022-11-23T05:12:41;98679.77;;;9.21;68.67
74722;BME280;63470;49.826;6.740;2022-11-23T05:15:12;98675.22;;;9.23;68.64
74722;BME280;63470;49.826;6.740;2022-11-23T05:17:42;98676.08;;;9.23;68.63
74722;BME280;63470;49.826;6.740;2022-11-23T05:20:13;98682.15;;;9.24;68.64
74722;BME280;63470;49.826;6.740;2022-11-23T05:22:43;98679.44;;;9.24;68.77
74722;BME280;63470;49.826;6.740;2022-11-23T05:25:13;98682.33;;;9.24;68.85
74722;BME280;63470;49.826;6.740;2022-11-23T05:27:44;98683.98;;;9.23;68.90
74722;BME280;63470;49.826;6.740;2022-11-23T05:30:17;98689.08;;;9.24;68.92
74722;BME280;63470;49.826;6.740;2022-11-23T05:32:44;98685.64;;;9.25;68.87
74722;BME280;63470;49.826;6.740;2022-11-23T05:35:15;98684.65;;;9.28;68.77
74722;BME280;63470;49.826;6.740;2022-11-23T05:37:45;98686.62;;;9.28;68.69
74722;BME280;63470;49.826;6.740;2022-11-23T05:40:16;98684.22;;;9.29;68.68
74722;BME280;63470;49.826;6.740;2022-11-23T05:42:46;98681.93;;;9.28;68.72
74722;BME280;63470;49.826;6.740;2022-11-23T05:45:17;98679.14;;;9.28;68.80
74722;BME280;63470;49.826;6.740;2022-11-23T05:47:51;98677.91;;;9.27;68.82
74722;BME280;63470;49.826;6.740;2022-11-23T05:50:19;98674.68;;;9.26;68.83
74722;BME280;63470;49.826;6.740;2022-11-23T05:52:55;98674.92;;;9.24;68.90
74722;BME280;63470;49.826;6.740;2022-11-23T05:55:26;98682.25;;;9.23;68.96
74722;BME280;63470;49.826;6.740;2022-11-23T05:57:57;98684.78;;;9.22;68.96
74722;BME280;63470;49.826;6.740;2022-11-23T06:00:26;98691.94;;;9.22;68.92
74722;BME280;63470;49.826;6.740;2022-11-23T06:02:57;98686.61;;;9.21;68.88
74722;BME280;63470;49.826;6.740;2022-11-23T06:05:21;98694.56;;;9.20;68.96
74722;BME280;63470;49.826;6.740;2022-11-23T06:07:52;98691.59;;;9.20;68.99
74722;BME280;63470;49.826;6.740;2022-11-23T06:10:22;98694.75;;;9.19;69.02
74722;BME280;63470;49.826;6.740;2022-11-23T06:12:52;98694.95;;;9.19;69.05
74722;BME280;63470;49.826;6.740;2022-11-23T06:15:23;98698.44;;;9.17;69.05
74722;BME280;63470;49.826;6.740;2022-11-23T06:17:57;98690.75;;;9.16;69.01
74722;BME280;63470;49.826;6.740;2022-11-23T06:20:26;98685.95;;;9.15;68.91
74722;BME280;63470;49.826;6.740;2022-11-23T06:22:55;98688.09;;;9.13;68.90
74722;BME280;63470;49.826;6.740;2022-11-23T06:25:26;98685.86;;;9.10;68.90
74722;BME280;63470;49.826;6.740;2022-11-23T06:27:59;98686.19;;;9.05;68.92
74722;BME280;63470;49.826;6.740;2022-11-23T06:30:28;98684.74;;;9.00;69.01
74722;BME280;63470;49.826;6.740;2022-11-23T06:32:57;98688.41;;;8.96;69.00
74722;BME280;63470;49.826;6.740;2022-11-23T06:35:28;98690.38;;;8.91;68.99
74722;BME280;63470;49.826;6.740;2022-11-23T06:37:58;98685.00;;;8.87;69.07
74722;BME280;63470;49.826;6.740;2022-11-23T06:40:29;98687.13;;;8.85;69.20
74722;BME280;63470;49.826;6.740;2022-11-23T06:42:59;98691.45;;;8.84;69.21
74722;BME280;63470;49.826;6.740;2022-11-23T06:45:30;98693.67;;;8.81;69.21
74722;BME280;63470;49.826;6.740;2022-11-23T06:48:00;98693.24;;;8.80;69.27
74722;BME280;63470;49.826;6.740;2022-11-23T06:50:31;98700.08;;;8.79;69.20
74722;BME280;63470;49.826;6.740;2022-11-23T06:53:02;98700.66;;;8.79;69.27
74722;BME280;63470;49.826;6.740;2022-11-23T06:55:32;98701.80;;;8.79;69.36
74722;BME280;63470;49.826;6.740;2022-11-23T06:58:03;98703.28;;;8.79;69.34
74722;BME280;63470;49.826;6.740;2022-11-23T07:00:38;98704.16;;;8.78;69.30
74722;BME280;63470;49.826;6.740;2022-11-23T07:03:09;98709.84;;;8.75;69.21
74722;BME280;63470;49.826;6.740;2022-11-23T07:05:38;98707.61;;;8.73;69.22
74722;BME280;63470;49.826;6.740;2022-11-23T07:08:05;98713.59;;;8.71;69.17
74722;BME280;63470;49.826;6.740;2022-11-23T07:10:36;98715.18;;;8.68;69.18
74722;BME280;63470;49.826;6.740;2022-11-23T07:13:07;98718.38;;;8.66;69.22
74722;BME280;63470;49.826;6.740;2022-11-23T07:15:37;98727.23;;;8.64;69.13
74722;BME280;63470;49.826;6.740;2022-11-23T07:18:08;98727.66;;;8.61;69.07
74722;BME280;63470;49.826;6.740;2022-11-23T07:20:38;98732.90;;;8.59;69.06
74722;BME280;63470;49.826;6.740;2022-11-23T07:23:09;98738.59;;;8.56;69.05
74722;BME280;63470;49.826;6.740;2022-11-23T07:25:38;98736.88;;;8.53;69.01
74722;BME280;63470;49.826;6.740;2022-11-23T07:28:10;98741.16;;;8.48;68.99
74722;BME280;63470;49.826;6.740;2022-11-23T07:30:39;98739.42;;;8.45;68.99
74722;BME280;63470;49.826;6.740;2022-11-23T07:33:11;98743.58;;;8.44;69.04
74722;BME280;63470;49.826;6.740;2022-11-23T07:35:41;98741.90;;;8.44;69.03
74722;BME280;63470;49.826;6.740;2022-11-23T07:38:11;98734.25;;;8.45;69.05
74722;BME280;63470;49.826;6.740;2022-11-23T07:40:42;98736.16;;;8.47;69.07
74722;BME280;63470;49.826;6.740;2022-11-23T07:43:12;98740.27;;;8.47;69.04
74722;BME280;63470;49.826;6.740;2022-11-23T07:45:42;98739.61;;;8.47;69.02
74722;BME280;63470;49.826;6.740;2022-11-23T07:48:13;98742.80;;;8.48;69.05
74722;BME280;63470;49.826;6.740;2022-11-23T07:50:43;98744.56;;;8.48;69.02
74722;BME280;63470;49.826;6.740;2022-11-23T07:53:14;98747.83;;;8.50;69.07
74722;BME280;63470;49.826;6.740;2022-11-23T07:55:45;98747.77;;;8.52;69.10
74722;BME280;63470;49.826;6.740;2022-11-23T07:58:14;98749.69;;;8.53;69.09
74722;BME280;63470;49.826;6.740;2022-11-23T08:00:50;98753.39;;;8.53;69.09
74722;BME280;63470;49.826;6.740;2022-11-23T08:03:23;98749.02;;;8.51;69.07
74722;BME280;63470;49.826;6.740;2022-11-23T08:05:51;98751.36;;;8.50;69.10
74722;BME280;63470;49.826;6.740;2022-11-23T08:08:22;98749.47;;;8.50;69.15
74722;BME280;63470;49.826;6.740;2022-11-23T08:10:52;98753.36;;;8.52;69.11
74722;BME280;63470;49.826;6.740;2022-11-23T08:13:24;98758.07;;;8.54;69.07
74722;BME280;63470;49.826;6.740;2022-11-23T08:15:48;98758.59;;;8.55;69.02
74722;BME280;63470;49.826;6.740;2022-11-23T08:18:19;98755.39;;;8.55;69.02
74722;BME280;63470;49.826;6.740;2022-11-23T08:20:49;98757.34;;;8.56;68.99
74722;BME280;63470;49.826;6.740;2022-11-23T08:23:20;98761.41;;;8.57;69.02
74722;BME280;63470;49.826;6.740;2022-11-23T08:25:51;98755.83;;;8.59;69.03
74722;BME280;63470;49.826;6.740;2022-11-23T08:28:21;98759.38;;;8.61;69.02
74722;BME280;63470;49.826;6.740;2022-11-23T08:30:52;98758.98;;;8.64;69.03
74722;BME280;63470;49.826;6.740;2022-11-23T08:33:22;98758.91;;;8.66;68.99
74722;BME280;63470;49.826;6.740;2022-11-23T08:35:52;98757.56;;;8.72;68.99
74722;BME280;63470;49.826;6.740;2022-11-23T08:38:23;98762.98;;;8.82;69.01
74722;BME280;63470;49.826;6.740;2022-11-23T08:40:57;98761.80;;;8.98;68.83
74722;BME280;63470;49.826;6.740;2022-11-23T08:43:24;98768.52;;;9.13;68.68
74722;BME280;63470;49.826;6.740;2022-11-23T08:45:55;98761.81;;;9.31;68.58
74722;BME280;63470;49.826;6.740;2022-11-23T08:48:25;98761.88;;;9.48;68.50
74722;BME280;63470;49.826;6.740;2022-11-23T08:50:58;98765.98;;;9.65;68.37
74722;BME280;63470;49.826;6.740;2022-11-23T08:53:26;98763.58;;;9.74;68.22
74722;BME280;63470;49.826;6.740;2022-11-23T08:55:59;98764.66;;;9.79;68.14
74722;BME280;63470;49.826;6.740;2022-11-23T08:58:32;98764.94;;;9.89;68.15
74722;BME280;63470;49.826;6.740;2022-11-23T09:00:58;98769.36;;;9.99;68.14
74722;BME280;63470;49.826;6.740;2022-11-23T09:03:28;98766.27;;;10.02;68.14
74722;BME280;63470;49.826;6.740;2022-11-23T09:05:59;98761.08;;;10.04;68.16
74722;BME280;63470;49.826;6.740;2022-11-23T09:08:29;98761.91;;;10.12;68.17
74722;BME280;63470;49.826;6.740;2022-11-23T09:11:01;98750.67;;;10.21;68.05
74722;BME280;63470;49.826;6.740;2022-11-23T09:13:30;98759.31;;;10.28;67.96
74722;BME280;63470;49.826;6.740;2022-11-23T09:16:01;98755.23;;;10.31;67.86
74722;BME280;63470;49.826;6.740;2022-11-23T09:18:33;98755.72;;;10.33;67.76
74722;BME280;63470;49.826;6.740;2022-11-23T09:21:03;98757.03;;;10.38;67.89
74722;BME280;63470;49.826;6.740;2022-11-23T09:23:32;98756.55;;;10.42;67.92
74722;BME280;63470;49.826;6.740;2022-11-23T09:26:04;98759.89;;;10.61;67.71
74722;BME280;63470;49.826;6.740;2022-11-23T09:28:33;98762.13;;;10.71;67.57
74722;BME280;63470;49.826;6.740;2022-11-23T09:31:04;98760.32;;;10.83;67.41
74722;BME280;63470;49.826;6.740;2022-11-23T09:33:34;98763.09;;;10.96;67.41
74722;BME280;63470;49.826;6.740;2022-11-23T09:36:05;98763.09;;;10.92;67.51
74722;BME280;63470;49.826;6.740;2022-11-23T09:38:35;98757.16;;;11.00;67.54
74722;BME280;63470;49.826;6.740;2022-11-23T09:46:26;98744.58;;;11.89;67.05
74722;BME280;63470;49.826;6.740;2022-11-23T09:51:19;98738.50;;;11.92;67.30
74722;BME280;63470;49.826;6.740;2022-11-23T09:53:45;98735.50;;;11.90;67.52
74722;BME280;63470;49.826;6.740;2022-11-23T09:56:16;98726.23;;;12.01;67.56
74722;BME280;63470;49.826;6.740;2022-11-23T09:58:39;98722.23;;;12.21;67.26
74722;BME280;63470;49.826;6.740;2022-11-23T10:01:15;98715.91;;;12.50;66.81
74722;BME280;63470;49.826;6.740;2022-11-23T10:03:42;98713.25;;;12.63;66.46
74722;BME280;63470;49.826;6.740;2022-11-23T10:06:17;98705.44;;;12.96;66.11
74722;BME280;63470;49.826;6.740;2022-11-23T10:08:54;98696.53;;;13.29;65.52
74722;BME280;63470;49.826;6.740;2022-11-23T10:11:34;98695.49;;;13.54;65.04
74722;BME280;63470;49.826;6.740;2022-11-23T10:13:44;98688.56;;;13.52;64.88
74722;BME280;63470;49.826;6.740;2022-11-23T10:16:36;98681.46;;;13.75;64.56
74722;BME280;63470;49.826;6.740;2022-11-23T10:18:56;98681.89;;;14.05;64.10
74722;BME280;63470;49.826;6.740;2022-11-23T10:21:43;98675.45;;;14.28;63.61
74722;BME280;63470;49.826;6.740;2022-11-23T10:23:53;98669.45;;;14.45;63.39
74722;BME280;63470;49.826;6.740;2022-11-23T10:26:17;98663.08;;;14.69;62.77
74722;BME280;63470;49.826;6.740;2022-11-23T10:28:46;98669.53;;;14.90;62.22
74722;BME280;63470;49.826;6.740;2022-11-23T10:31:19;98660.80;;;15.01;61.83
74722;BME280;63470;49.826;6.740;2022-11-23T10:34:12;98659.64;;;15.22;61.08
74722;BME280;63470;49.826;6.740;2022-11-23T10:36:16;98658.89;;;15.17;60.99
74722;BME280;63470;49.826;6.740;2022-11-23T10:38:53;98654.41;;;15.05;61.04
74722;BME280;63470;49.826;6.740;2022-11-23T10:41:20;98655.01;;;14.98;61.04
74722;BME280;63470;49.826;6.740;2022-11-23T10:44:04;98653.41;;;15.05;60.94
74722;BME280;63470;49.826;6.740;2022-11-23T10:46:31;98650.90;;;15.08;60.71
74722;BME280;63470;49.826;6.740;2022-11-23T10:48:52;98645.59;;;15.12;60.77
74722;BME280;63470;49.826;6.740;2022-11-23T10:51:31;98644.38;;;15.32;60.43
74722;BME280;63470;49.826;6.740;2022-11-23T10:54:00;98641.65;;;15.31;60.31
74722;BME280;63470;49.826;6.740;2022-11-23T10:56:22;98641.03;;;15.18;60.56
74722;BME280;63470;49.826;6.740;2022-11-23T10:58:54;98631.95;;;15.05;60.81
74722;BME280;63470;49.826;6.740;2022-11-23T11:01:25;98636.31;;;14.85;61.29
74722;BME280;63470;49.826;6.740;2022-11-23T11:03:56;98631.33;;;14.80;61.53
74722;BME280;63470;49.826;6.740;2022-11-23T11:06:27;98632.26;;;14.74;61.80
74722;BME280;63470;49.826;6.740;2022-11-23T11:09:01;98622.27;;;14.84;61.79
74722;BME280;63470;49.826;6.740;2022-11-23T11:11:27;98630.95;;;14.75;61.99
74722;BME280;63470;49.826;6.740;2022-11-23T11:14:13;98632.32;;;14.58;62.48
74722;BME280;63470;49.826;6.740;2022-11-23T11:16:29;98626.98;;;14.48;62.88
74722;BME280;63470;49.826;6.740;2022-11-23T11:18:58;98624.36;;;14.41;63.17
74722;BME280;63470;49.826;6.740;2022-11-23T11:21:41;98622.59;;;14.21;63.65
74722;BME280;63470;49.826;6.740;2022-11-23T11:26:34;98616.68;;;14.05;64.40
74722;BME280;63470;49.826;6.740;2022-11-23T11:29:05;98611.98;;;14.24;64.51
74722;BME280;63470;49.826;6.740;2022-11-23T11:31:51;98607.86;;;14.42;64.42
74722;BME280;63470;49.826;6.740;2022-11-23T11:36:36;98598.88;;;14.25;64.73
74722;BME280;63470;49.826;6.740;2022-11-23T11:39:08;98598.17;;;14.06;64.97
74722;BME280;63470;49.826;6.740;2022-11-23T11:41:37;98592.39;;;13.95;65.32
74722;BME280;63470;49.826;6.740;2022-11-23T11:44:10;98591.45;;;13.74;65.64
74722;BME280;63470;49.826;6.740;2022-11-23T11:46:37;98586.53;;;13.52;65.91
74722;BME280;63470;49.826;6.740;2022-11-23T11:49:12;98586.91;;;13.41;66.18
74722;BME280;63470;49.826;6.740;2022-11-23T11:54:12;98587.69;;;13.29;66.42
74722;BME280;63470;49.826;6.740;2022-11-23T11:56:51;98591.53;;;13.23;66.52
74722;BME280;63470;49.826;6.740;2022-11-23T11:59:16;98585.24;;;13.12;66.66
74722;BME280;63470;49.826;6.740;2022-11-23T12:01:50;98581.96;;;13.08;66.81
74722;BME280;63470;49.826;6.740;2022-11-23T12:04:11;98581.67;;;13.12;66.77
74722;BME280;63470;49.826;6.740;2022-11-23T12:09:16;98569.04;;;13.17;66.92
74722;BME280;63470;49.826;6.740;2022-11-23T12:11:37;98567.12;;;13.54;66.66
74722;BME280;63470;49.826;6.740;2022-11-23T12:14:10;98559.98;;;13.99;66.32
74722;BME280;63470;49.826;6.740;2022-11-23T12:16:44;98550.77;;;14.67;66.03
74722;BME280;63470;49.826;6.740;2022-11-23T12:19:41;98538.91;;;15.71;65.99
74722;BME280;63470;49.826;6.740;2022-11-23T12:24:23;98526.65;;;16.50;65.09
74722;BME280;63470;49.826;6.740;2022-11-23T12:26:56;98518.17;;;16.46;65.32
74722;BME280;63470;49.826;6.740;2022-11-23T12:29:39;98512.19;;;16.52;65.82
74722;BME280;63470;49.826;6.740;2022-11-23T12:31:47;98508.39;;;16.91;65.92
74722;BME280;63470;49.826;6.740;2022-11-23T12:41:53;98500.70;;;16.53;66.56
74722;BME280;63470;49.826;6.740;2022-11-23T12:44:46;98489.39;;;16.44;66.86
74722;BME280;63470;49.826;6.740;2022-11-23T12:47:05;98488.03;;;16.42;67.04
74722;BME280;63470;49.826;6.740;2022-11-23T12:49:26;98482.66;;;16.52;67.00
74722;BME280;63470;49.826;6.740;2022-11-23T12:54:37;98471.11;;;16.76;66.77
74722;BME280;63470;49.826;6.740;2022-11-23T12:59:14;98460.59;;;16.90;66.41
74722;BME280;63470;49.826;6.740;2022-11-23T13:01:45;98467.94;;;16.86;66.41
74722;BME280;63470;49.826;6.740;2022-11-23T13:14:22;98468.55;;;15.01;67.93
74722;BME280;63470;49.826;6.740;2022-11-23T13:17:03;98471.42;;;14.41;68.67
74722;BME280;63470;49.826;6.740;2022-11-23T13:19:40;98475.88;;;13.86;69.12
74722;BME280;63470;49.826;6.740;2022-11-23T13:21:45;98478.50;;;13.46;69.23
74722;BME280;63470;49.826;6.740;2022-11-23T13:24:35;98472.78;;;13.10;69.37
74722;BME280;63470;49.826;6.740;2022-11-23T13:26:45;98463.81;;;12.80;69.37
74722;BME280;63470;49.826;6.740;2022-11-23T13:31:45;98465.02;;;12.55;69.10
74722;BME280;63470;49.826;6.740;2022-11-23T13:34:42;98462.25;;;12.51;68.94
74722;BME280;63470;49.826;6.740;2022-11-23T13:37:00;98457.73;;;12.50;68.67
74722;BME280;63470;49.826;6.740;2022-11-23T13:39:59;98453.91;;;12.56;68.51
74722;BME280;63470;49.826;6.740;2022-11-23T13:41:59;98450.20;;;12.71;68.25
74722;BME280;63470;49.826;6.740;2022-11-23T13:44:21;98446.48;;;12.86;67.97
74722;BME280;63470;49.826;6.740;2022-11-23T13:47:02;98447.33;;;13.03;67.71
74722;BME280;63470;49.826;6.740;2022-11-23T13:49:40;98449.17;;;13.04;67.54
74722;BME280;63470;49.826;6.740;2022-11-23T13:52:05;98448.23;;;12.99;67.59
74722;BME280;63470;49.826;6.740;2022-11-23T13:54:21;98451.73;;;12.90;67.72
74722;BME280;63470;49.826;6.740;2022-11-23T13:57:01;98451.89;;;12.80;67.76
74722;BME280;63470;49.826;6.740;2022-11-23T13:59:28;98450.75;;;12.65;67.88
74722;BME280;63470;49.826;6.740;2022-11-23T14:04:24;98448.34;;;12.42;68.04
74722;BME280;63470;49.826;6.740;2022-11-23T14:07:25;98447.16;;;12.34;68.13
74722;BME280;63470;49.826;6.740;2022-11-23T14:09:45;98439.77;;;12.29;68.17
74722;BME280;63470;49.826;6.740;2022-11-23T14:12:05;98441.15;;;12.23;68.05
74722;BME280;63470;49.826;6.740;2022-11-23T14:14:30;98432.32;;;12.14;68.00
74722;BME280;63470;49.826;6.740;2022-11-23T14:19:40;98433.02;;;12.02;68.08